Archival Weather

Half Moon Bay

Half Moon Bay, California (KHAF)

Report from: Thursday, September 21, 2023 6:35 PM PDT
Current time: Sunday, July 14, 2024 3:41 AM PDT

Current weather – Weather history – Daily summaries
Weather forecast

Temperature16.0°C (60.8°F)
Dew point13.0°C (55.4°F)
Winds 6 kts (3.1 m/s, 6.9 mph) South (180°)
Visibility3 mi. (4.8 km)
Altimeter29.91 in.Hg (1013 mB)
Relative humidity82 %
Density altitude340 ft. (104 m)
Remarks Fully automated report
Automated weather observing station with precipitation discriminator
Flight conditions Marginal Visual Meteorological Conditions
Raw dataKHAF 220135Z AUTO 18006KT 3SM HZ 16/13 A2991 RMK AO2
An error has occurred. This application may no longer respond until reloaded. Reload 🗙